sensor_id;sensor_type;location;lat;lon;timestamp;temperature;humidity
14529;DHT22;7351;51.194;4.098;2023-04-15T00:01:50;17.30;99.90
14529;DHT22;7351;51.194;4.098;2023-04-15T00:04:18;17.30;99.90
14529;DHT22;7351;51.194;4.098;2023-04-15T00:06:49;17.30;99.90
14529;DHT22;7351;51.194;4.098;2023-04-15T00:09:19;17.30;99.90
14529;DHT22;7351;51.194;4.098;2023-04-15T00:11:46;17.30;99.90
14529;DHT22;7351;51.194;4.098;2023-04-15T00:14:13;17.20;99.90
14529;DHT22;7351;51.194;4.098;2023-04-15T00:16:40;17.30;99.90
14529;DHT22;7351;51.194;4.098;2023-04-15T00:19:07;17.30;99.90
14529;DHT22;7351;51.194;4.098;2023-04-15T00:21:34;17.30;99.90
14529;DHT22;7351;51.194;4.098;2023-04-15T00:24:01;17.30;99.90
14529;DHT22;7351;51.194;4.098;2023-04-15T00:26:29;17.20;99.90
14529;DHT22;7351;51.194;4.098;2023-04-15T00:28:56;17.30;99.90
14529;DHT22;7351;51.194;4.098;2023-04-15T00:31:23;17.30;99.90
14529;DHT22;7351;51.194;4.098;2023-04-15T00:33:50;17.30;99.90
14529;DHT22;7351;51.194;4.098;2023-04-15T00:36:17;17.30;99.90
14529;DHT22;7351;51.194;4.098;2023-04-15T00:38:44;17.20;99.90
14529;DHT22;7351;51.194;4.098;2023-04-15T00:41:11;17.20;99.90
14529;DHT22;7351;51.194;4.098;2023-04-15T00:43:40;17.20;99.90
14529;DHT22;7351;51.194;4.098;2023-04-15T00:46:07;17.20;99.90
14529;DHT22;7351;51.194;4.098;2023-04-15T00:48:35;17.20;99.90
14529;DHT22;7351;51.194;4.098;2023-04-15T00:51:03;17.20;99.90
14529;DHT22;7351;51.194;4.098;2023-04-15T00:53:31;17.20;99.90
14529;DHT22;7351;51.194;4.098;2023-04-15T00:55:58;17.20;99.90
14529;DHT22;7351;51.194;4.098;2023-04-15T00:58:25;17.20;99.90
14529;DHT22;7351;51.194;4.098;2023-04-15T01:00:55;17.20;99.90
14529;DHT22;7351;51.194;4.098;2023-04-15T01:03:22;17.20;99.90
14529;DHT22;7351;51.194;4.098;2023-04-15T01:05:50;17.20;99.90
14529;DHT22;7351;51.194;4.098;2023-04-15T01:08:22;17.20;99.90
14529;DHT22;7351;51.194;4.098;2023-04-15T01:10:50;17.20;99.90
14529;DHT22;7351;51.194;4.098;2023-04-15T01:13:17;17.20;99.90
14529;DHT22;7351;51.194;4.098;2023-04-15T01:15:46;17.20;99.90
14529;DHT22;7351;51.194;4.098;2023-04-15T01:18:15;17.10;99.90
14529;DHT22;7351;51.194;4.098;2023-04-15T01:20:42;17.20;99.90
14529;DHT22;7351;51.194;4.098;2023-04-15T01:23:09;17.20;99.90
14529;DHT22;7351;51.194;4.098;2023-04-15T01:25:38;17.20;99.90
14529;DHT22;7351;51.194;4.098;2023-04-15T01:28:06;17.10;99.90
14529;DHT22;7351;51.194;4.098;2023-04-15T01:30:34;17.20;99.90
14529;DHT22;7351;51.194;4.098;2023-04-15T01:33:01;17.20;99.90
14529;DHT22;7351;51.194;4.098;2023-04-15T01:35:28;17.10;99.90
14529;DHT22;7351;51.194;4.098;2023-04-15T01:37:58;17.10;99.90
14529;DHT22;7351;51.194;4.098;2023-04-15T01:40:28;17.10;99.90
14529;DHT22;7351;51.194;4.098;2023-04-15T01:42:56;17.20;99.90
14529;DHT22;7351;51.194;4.098;2023-04-15T01:45:23;17.10;99.90
14529;DHT22;7351;51.194;4.098;2023-04-15T01:47:51;17.10;99.90
14529;DHT22;7351;51.194;4.098;2023-04-15T01:50:18;17.20;99.90
14529;DHT22;7351;51.194;4.098;2023-04-15T01:52:45;17.10;99.90
14529;DHT22;7351;51.194;4.098;2023-04-15T01:55:13;17.10;99.90
14529;DHT22;7351;51.194;4.098;2023-04-15T01:57:40;17.10;99.90
14529;DHT22;7351;51.194;4.098;2023-04-15T02:00:09;17.10;99.90
14529;DHT22;7351;51.194;4.098;2023-04-15T02:02:37;17.10;99.90
14529;DHT22;7351;51.194;4.098;2023-04-15T02:05:05;17.10;99.90
14529;DHT22;7351;51.194;4.098;2023-04-15T02:07:32;17.10;99.90
14529;DHT22;7351;51.194;4.098;2023-04-15T02:09:58;17.10;99.90
14529;DHT22;7351;51.194;4.098;2023-04-15T02:12:25;17.10;99.90
14529;DHT22;7351;51.194;4.098;2023-04-15T02:14:52;17.10;99.90
14529;DHT22;7351;51.194;4.098;2023-04-15T02:17:21;17.10;99.90
14529;DHT22;7351;51.194;4.098;2023-04-15T02:19:48;17.00;99.90
14529;DHT22;7351;51.194;4.098;2023-04-15T02:22:15;17.10;99.90
14529;DHT22;7351;51.194;4.098;2023-04-15T02:24:43;17.00;99.90
14529;DHT22;7351;51.194;4.098;2023-04-15T02:27:15;17.10;99.90
14529;DHT22;7351;51.194;4.098;2023-04-15T02:29:42;17.10;99.90
14529;DHT22;7351;51.194;4.098;2023-04-15T02:32:10;17.10;99.90
14529;DHT22;7351;51.194;4.098;2023-04-15T02:34:39;17.10;99.90
14529;DHT22;7351;51.194;4.098;2023-04-15T02:37:07;17.00;99.90
14529;DHT22;7351;51.194;4.098;2023-04-15T02:39:35;17.00;99.90
14529;DHT22;7351;51.194;4.098;2023-04-15T02:42:02;17.10;99.90
14529;DHT22;7351;51.194;4.098;2023-04-15T02:44:29;17.00;99.90
14529;DHT22;7351;51.194;4.098;2023-04-15T02:46:57;17.00;99.90
14529;DHT22;7351;51.194;4.098;2023-04-15T02:49:24;17.00;99.90
14529;DHT22;7351;51.194;4.098;2023-04-15T02:51:55;17.00;99.90
14529;DHT22;7351;51.194;4.098;2023-04-15T02:54:23;17.00;99.90
14529;DHT22;7351;51.194;4.098;2023-04-15T02:56:50;17.00;99.90
14529;DHT22;7351;51.194;4.098;2023-04-15T02:59:19;17.00;99.90
14529;DHT22;7351;51.194;4.098;2023-04-15T03:01:46;17.00;99.90
14529;DHT22;7351;51.194;4.098;2023-04-15T03:04:13;17.00;99.90
14529;DHT22;7351;51.194;4.098;2023-04-15T03:06:40;17.00;99.90
14529;DHT22;7351;51.194;4.098;2023-04-15T03:09:09;17.00;99.90
14529;DHT22;7351;51.194;4.098;2023-04-15T03:11:36;17.00;99.90
14529;DHT22;7351;51.194;4.098;2023-04-15T03:14:05;17.00;99.90
14529;DHT22;7351;51.194;4.098;2023-04-15T03:16:32;17.00;99.90
14529;DHT22;7351;51.194;4.098;2023-04-15T03:18:59;17.00;99.90
14529;DHT22;7351;51.194;4.098;2023-04-15T03:21:26;17.00;99.90
14529;DHT22;7351;51.194;4.098;2023-04-15T03:23:53;16.90;99.90
14529;DHT22;7351;51.194;4.098;2023-04-15T03:26:26;17.00;99.90
14529;DHT22;7351;51.194;4.098;2023-04-15T03:28:53;17.00;99.90
14529;DHT22;7351;51.194;4.098;2023-04-15T03:31:20;17.00;99.90
14529;DHT22;7351;51.194;4.098;2023-04-15T03:33:47;17.00;99.90
14529;DHT22;7351;51.194;4.098;2023-04-15T03:36:15;17.00;99.90
14529;DHT22;7351;51.194;4.098;2023-04-15T03:38:42;16.90;99.90
14529;DHT22;7351;51.194;4.098;2023-04-15T03:41:09;17.00;99.90
14529;DHT22;7351;51.194;4.098;2023-04-15T03:43:38;17.00;99.90
14529;DHT22;7351;51.194;4.098;2023-04-15T03:46:05;17.00;99.90
14529;DHT22;7351;51.194;4.098;2023-04-15T03:48:31;17.00;99.90
14529;DHT22;7351;51.194;4.098;2023-04-15T03:50:58;16.90;99.90
14529;DHT22;7351;51.194;4.098;2023-04-15T03:53:25;17.00;99.90
14529;DHT22;7351;51.194;4.098;2023-04-15T03:55:52;17.00;99.90
14529;DHT22;7351;51.194;4.098;2023-04-15T03:58:19;16.90;99.90
14529;DHT22;7351;51.194;4.098;2023-04-15T04:00:48;16.90;99.90
14529;DHT22;7351;51.194;4.098;2023-04-15T04:03:15;16.90;99.90
14529;DHT22;7351;51.194;4.098;2023-04-15T04:05:42;16.80;99.90
14529;DHT22;7351;51.194;4.098;2023-04-15T04:08:09;16.90;99.90
14529;DHT22;7351;51.194;4.098;2023-04-15T04:10:38;16.90;99.90
14529;DHT22;7351;51.194;4.098;2023-04-15T04:13:05;16.90;99.90
14529;DHT22;7351;51.194;4.098;2023-04-15T04:15:32;16.90;99.90
14529;DHT22;7351;51.194;4.098;2023-04-15T04:18:01;16.90;99.90
14529;DHT22;7351;51.194;4.098;2023-04-15T04:20:28;16.90;99.90
14529;DHT22;7351;51.194;4.098;2023-04-15T04:22:56;16.90;99.90
14529;DHT22;7351;51.194;4.098;2023-04-15T04:25:23;16.90;99.90
14529;DHT22;7351;51.194;4.098;2023-04-15T04:27:50;16.90;99.90
14529;DHT22;7351;51.194;4.098;2023-04-15T04:30:17;16.90;99.90
14529;DHT22;7351;51.194;4.098;2023-04-15T04:32:44;16.90;99.90
14529;DHT22;7351;51.194;4.098;2023-04-15T04:35:13;16.90;99.90
14529;DHT22;7351;51.194;4.098;2023-04-15T04:37:40;16.90;99.90
14529;DHT22;7351;51.194;4.098;2023-04-15T04:40:08;16.90;99.90
14529;DHT22;7351;51.194;4.098;2023-04-15T04:42:35;16.90;99.90
14529;DHT22;7351;51.194;4.098;2023-04-15T04:45:02;16.90;99.90
14529;DHT22;7351;51.194;4.098;2023-04-15T04:47:29;16.90;99.90
14529;DHT22;7351;51.194;4.098;2023-04-15T04:49:56;17.00;99.90
14529;DHT22;7351;51.194;4.098;2023-04-15T04:52:24;17.00;99.90
14529;DHT22;7351;51.194;4.098;2023-04-15T04:54:51;17.00;99.90
14529;DHT22;7351;51.194;4.098;2023-04-15T04:57:18;17.10;99.90
14529;DHT22;7351;51.194;4.098;2023-04-15T04:59:45;17.10;99.90
14529;DHT22;7351;51.194;4.098;2023-04-15T05:02:12;17.30;99.90
14529;DHT22;7351;51.194;4.098;2023-04-15T05:04:39;17.30;99.90
14529;DHT22;7351;51.194;4.098;2023-04-15T05:07:06;17.30;99.90
14529;DHT22;7351;51.194;4.098;2023-04-15T05:09:35;17.40;99.90
14529;DHT22;7351;51.194;4.098;2023-04-15T05:12:03;17.40;99.90
14529;DHT22;7351;51.194;4.098;2023-04-15T05:14:30;17.50;99.90
14529;DHT22;7351;51.194;4.098;2023-04-15T05:16:57;17.60;99.90
14529;DHT22;7351;51.194;4.098;2023-04-15T05:19:24;17.60;99.90
14529;DHT22;7351;51.194;4.098;2023-04-15T05:21:51;17.70;99.90
14529;DHT22;7351;51.194;4.098;2023-04-15T05:24:18;17.70;99.90
14529;DHT22;7351;51.194;4.098;2023-04-15T05:26:47;17.80;99.90
14529;DHT22;7351;51.194;4.098;2023-04-15T05:29:14;17.80;99.90
14529;DHT22;7351;51.194;4.098;2023-04-15T05:31:40;17.90;99.90
14529;DHT22;7351;51.194;4.098;2023-04-15T05:34:08;17.90;99.90
14529;DHT22;7351;51.194;4.098;2023-04-15T05:36:36;17.90;99.90
14529;DHT22;7351;51.194;4.098;2023-04-15T05:39:03;17.90;99.90
14529;DHT22;7351;51.194;4.098;2023-04-15T05:41:30;17.90;99.90
14529;DHT22;7351;51.194;4.098;2023-04-15T05:43:58;17.90;99.90
14529;DHT22;7351;51.194;4.098;2023-04-15T05:46:25;17.90;99.90
14529;DHT22;7351;51.194;4.098;2023-04-15T05:48:52;17.90;99.90
14529;DHT22;7351;51.194;4.098;2023-04-15T05:51:19;17.90;99.90
14529;DHT22;7351;51.194;4.098;2023-04-15T05:53:46;17.90;99.90
14529;DHT22;7351;51.194;4.098;2023-04-15T05:56:13;17.90;99.90
14529;DHT22;7351;51.194;4.098;2023-04-15T05:58:40;17.90;99.90
14529;DHT22;7351;51.194;4.098;2023-04-15T06:01:08;17.90;99.90
14529;DHT22;7351;51.194;4.098;2023-04-15T06:03:36;17.90;99.90
14529;DHT22;7351;51.194;4.098;2023-04-15T06:06:04;17.80;99.90
14529;DHT22;7351;51.194;4.098;2023-04-15T06:08:32;17.80;99.90
14529;DHT22;7351;51.194;4.098;2023-04-15T06:10:59;17.90;99.90
14529;DHT22;7351;51.194;4.098;2023-04-15T06:13:26;17.80;99.90
14529;DHT22;7351;51.194;4.098;2023-04-15T06:15:53;17.80;99.90
14529;DHT22;7351;51.194;4.098;2023-04-15T06:18:21;17.80;99.90
14529;DHT22;7351;51.194;4.098;2023-04-15T06:20:48;17.70;99.90
14529;DHT22;7351;51.194;4.098;2023-04-15T06:23:15;17.70;99.90
14529;DHT22;7351;51.194;4.098;2023-04-15T06:25:42;17.70;99.90
14529;DHT22;7351;51.194;4.098;2023-04-15T06:28:09;17.70;99.90
14529;DHT22;7351;51.194;4.098;2023-04-15T06:30:36;17.70;99.90
14529;DHT22;7351;51.194;4.098;2023-04-15T06:33:04;17.70;99.90
14529;DHT22;7351;51.194;4.098;2023-04-15T06:35:33;17.70;99.90
14529;DHT22;7351;51.194;4.098;2023-04-15T06:38:00;17.70;99.90
14529;DHT22;7351;51.194;4.098;2023-04-15T06:40:27;17.70;99.90
14529;DHT22;7351;51.194;4.098;2023-04-15T06:42:54;17.70;99.90
14529;DHT22;7351;51.194;4.098;2023-04-15T06:45:21;17.80;99.90
14529;DHT22;7351;51.194;4.098;2023-04-15T06:47:48;17.90;99.90
14529;DHT22;7351;51.194;4.098;2023-04-15T06:50:15;17.90;99.90
14529;DHT22;7351;51.194;4.098;2023-04-15T06:52:43;18.00;99.90
14529;DHT22;7351;51.194;4.098;2023-04-15T06:55:10;18.00;99.90
14529;DHT22;7351;51.194;4.098;2023-04-15T06:57:37;18.10;99.90
14529;DHT22;7351;51.194;4.098;2023-04-15T07:00:05;18.20;99.90
14529;DHT22;7351;51.194;4.098;2023-04-15T07:02:33;18.20;99.90
14529;DHT22;7351;51.194;4.098;2023-04-15T07:05:00;18.20;99.90
14529;DHT22;7351;51.194;4.098;2023-04-15T07:07:27;18.30;99.90
14529;DHT22;7351;51.194;4.098;2023-04-15T07:09:55;18.30;99.90
14529;DHT22;7351;51.194;4.098;2023-04-15T07:12:22;18.40;99.90
14529;DHT22;7351;51.194;4.098;2023-04-15T07:14:49;18.50;99.90
14529;DHT22;7351;51.194;4.098;2023-04-15T07:17:16;18.50;99.90
14529;DHT22;7351;51.194;4.098;2023-04-15T07:19:43;18.50;99.90
14529;DHT22;7351;51.194;4.098;2023-04-15T07:22:10;18.60;99.90
14529;DHT22;7351;51.194;4.098;2023-04-15T07:24:37;18.60;99.90
14529;DHT22;7351;51.194;4.098;2023-04-15T07:27:05;18.70;99.90
14529;DHT22;7351;51.194;4.098;2023-04-15T07:29:33;18.70;99.90
14529;DHT22;7351;51.194;4.098;2023-04-15T07:31:59;18.80;99.90
14529;DHT22;7351;51.194;4.098;2023-04-15T07:34:26;18.80;99.90
14529;DHT22;7351;51.194;4.098;2023-04-15T07:36:54;18.80;99.90
14529;DHT22;7351;51.194;4.098;2023-04-15T07:39:21;18.90;99.90
14529;DHT22;7351;51.194;4.098;2023-04-15T07:41:48;19.00;99.90
14529;DHT22;7351;51.194;4.098;2023-04-15T07:44:17;19.00;99.90
14529;DHT22;7351;51.194;4.098;2023-04-15T07:46:43;19.00;99.90
14529;DHT22;7351;51.194;4.098;2023-04-15T07:49:11;19.00;99.90
14529;DHT22;7351;51.194;4.098;2023-04-15T07:51:38;19.10;99.90
14529;DHT22;7351;51.194;4.098;2023-04-15T07:54:05;19.10;99.90
14529;DHT22;7351;51.194;4.098;2023-04-15T07:56:32;19.20;99.90
14529;DHT22;7351;51.194;4.098;2023-04-15T07:58:59;19.20;99.90
14529;DHT22;7351;51.194;4.098;2023-04-15T08:01:28;19.20;99.90
14529;DHT22;7351;51.194;4.098;2023-04-15T08:03:55;19.20;99.90
14529;DHT22;7351;51.194;4.098;2023-04-15T08:06:22;19.10;99.90
14529;DHT22;7351;51.194;4.098;2023-04-15T08:08:49;19.10;99.90
14529;DHT22;7351;51.194;4.098;2023-04-15T08:11:16;19.20;99.90
14529;DHT22;7351;51.194;4.098;2023-04-15T08:13:43;19.10;99.90
14529;DHT22;7351;51.194;4.098;2023-04-15T08:16:17;19.10;99.90
14529;DHT22;7351;51.194;4.098;2023-04-15T08:18:46;19.10;99.90
14529;DHT22;7351;51.194;4.098;2023-04-15T08:21:13;19.00;99.90
14529;DHT22;7351;51.194;4.098;2023-04-15T08:23:40;19.10;99.90
14529;DHT22;7351;51.194;4.098;2023-04-15T08:26:07;19.00;99.90
14529;DHT22;7351;51.194;4.098;2023-04-15T08:28:36;19.00;99.90
14529;DHT22;7351;51.194;4.098;2023-04-15T08:31:03;18.90;99.90
14529;DHT22;7351;51.194;4.098;2023-04-15T08:33:30;18.90;99.90
14529;DHT22;7351;51.194;4.098;2023-04-15T08:35:58;18.90;99.90
14529;DHT22;7351;51.194;4.098;2023-04-15T08:38:25;18.90;99.90
14529;DHT22;7351;51.194;4.098;2023-04-15T08:40:52;18.80;99.90
14529;DHT22;7351;51.194;4.098;2023-04-15T08:43:21;18.80;99.90
14529;DHT22;7351;51.194;4.098;2023-04-15T08:45:51;18.80;99.90
14529;DHT22;7351;51.194;4.098;2023-04-15T08:48:19;18.80;99.90
14529;DHT22;7351;51.194;4.098;2023-04-15T08:50:47;18.70;99.90
14529;DHT22;7351;51.194;4.098;2023-04-15T08:53:15;18.60;99.90
14529;DHT22;7351;51.194;4.098;2023-04-15T08:55:44;18.60;99.90
14529;DHT22;7351;51.194;4.098;2023-04-15T08:58:12;18.50;99.90
14529;DHT22;7351;51.194;4.098;2023-04-15T09:00:39;18.40;99.90
14529;DHT22;7351;51.194;4.098;2023-04-15T09:03:07;18.40;99.90
14529;DHT22;7351;51.194;4.098;2023-04-15T09:05:35;18.40;99.90
14529;DHT22;7351;51.194;4.098;2023-04-15T09:08:02;18.30;99.90
14529;DHT22;7351;51.194;4.098;2023-04-15T09:10:32;18.30;99.90
14529;DHT22;7351;51.194;4.098;2023-04-15T09:13:00;18.30;99.90
14529;DHT22;7351;51.194;4.098;2023-04-15T09:15:29;18.30;99.90
14529;DHT22;7351;51.194;4.098;2023-04-15T09:17:58;18.20;99.90
14529;DHT22;7351;51.194;4.098;2023-04-15T09:20:25;18.20;99.90
14529;DHT22;7351;51.194;4.098;2023-04-15T09:22:52;18.20;99.90
14529;DHT22;7351;51.194;4.098;2023-04-15T09:25:30;18.20;99.90
14529;DHT22;7351;51.194;4.098;2023-04-15T09:27:59;18.20;99.90
14529;DHT22;7351;51.194;4.098;2023-04-15T09:30:27;18.20;99.90
14529;DHT22;7351;51.194;4.098;2023-04-15T09:32:56;18.20;99.90
14529;DHT22;7351;51.194;4.098;2023-04-15T09:35:24;18.20;99.90
14529;DHT22;7351;51.194;4.098;2023-04-15T09:37:52;18.20;99.90
14529;DHT22;7351;51.194;4.098;2023-04-15T09:40:36;18.10;99.90
14529;DHT22;7351;51.194;4.098;2023-04-15T09:43:04;18.10;99.90
14529;DHT22;7351;51.194;4.098;2023-04-15T09:45:32;18.10;99.90
14529;DHT22;7351;51.194;4.098;2023-04-15T09:48:14;18.20;99.90
14529;DHT22;7351;51.194;4.098;2023-04-15T09:50:42;18.20;99.90
14529;DHT22;7351;51.194;4.098;2023-04-15T09:53:09;18.10;99.90
14529;DHT22;7351;51.194;4.098;2023-04-15T09:55:37;18.10;99.90
14529;DHT22;7351;51.194;4.098;2023-04-15T09:58:08;18.10;99.90
14529;DHT22;7351;51.194;4.098;2023-04-15T10:00:36;18.10;99.90
14529;DHT22;7351;51.194;4.098;2023-04-15T10:03:05;18.10;99.90
14529;DHT22;7351;51.194;4.098;2023-04-15T10:05:32;18.10;99.90
14529;DHT22;7351;51.194;4.098;2023-04-15T10:08:00;18.10;99.90
14529;DHT22;7351;51.194;4.098;2023-04-15T10:10:28;18.10;99.90
14529;DHT22;7351;51.194;4.098;2023-04-15T10:12:59;18.10;99.90
14529;DHT22;7351;51.194;4.098;2023-04-15T10:15:28;18.10;99.90
14529;DHT22;7351;51.194;4.098;2023-04-15T10:17:55;18.10;99.90
14529;DHT22;7351;51.194;4.098;2023-04-15T10:20:24;18.10;99.90
14529;DHT22;7351;51.194;4.098;2023-04-15T10:22:52;18.10;99.90
14529;DHT22;7351;51.194;4.098;2023-04-15T10:25:19;18.20;99.90
14529;DHT22;7351;51.194;4.098;2023-04-15T10:27:47;18.20;99.90
14529;DHT22;7351;51.194;4.098;2023-04-15T10:30:18;18.10;99.90
14529;DHT22;7351;51.194;4.098;2023-04-15T10:32:45;18.20;99.90
14529;DHT22;7351;51.194;4.098;2023-04-15T10:35:13;18.20;99.90
14529;DHT22;7351;51.194;4.098;2023-04-15T10:37:40;18.20;99.90
14529;DHT22;7351;51.194;4.098;2023-04-15T10:40:29;18.30;99.90
14529;DHT22;7351;51.194;4.098;2023-04-15T10:42:58;18.30;99.90
14529;DHT22;7351;51.194;4.098;2023-04-15T10:45:30;18.30;99.90
14529;DHT22;7351;51.194;4.098;2023-04-15T10:48:00;18.30;99.90
14529;DHT22;7351;51.194;4.098;2023-04-15T10:50:29;18.30;99.90
14529;DHT22;7351;51.194;4.098;2023-04-15T10:52:57;18.40;99.90
14529;DHT22;7351;51.194;4.098;2023-04-15T10:55:25;18.30;99.90
14529;DHT22;7351;51.194;4.098;2023-04-15T10:57:54;18.40;99.90
14529;DHT22;7351;51.194;4.098;2023-04-15T11:00:25;18.40;99.90
14529;DHT22;7351;51.194;4.098;2023-04-15T11:02:55;18.40;99.90
14529;DHT22;7351;51.194;4.098;2023-04-15T11:05:47;18.40;99.90
14529;DHT22;7351;51.194;4.098;2023-04-15T11:08:12;18.40;99.90
14529;DHT22;7351;51.194;4.098;2023-04-15T11:10:50;18.40;99.90
14529;DHT22;7351;51.194;4.098;2023-04-15T11:13:27;18.50;99.90
14529;DHT22;7351;51.194;4.098;2023-04-15T11:15:57;18.50;99.90
14529;DHT22;7351;51.194;4.098;2023-04-15T11:18:28;18.50;99.90
14529;DHT22;7351;51.194;4.098;2023-04-15T11:20:58;18.50;99.90
14529;DHT22;7351;51.194;4.098;2023-04-15T11:23:30;18.50;99.90
14529;DHT22;7351;51.194;4.098;2023-04-15T11:25:58;18.50;99.90
14529;DHT22;7351;51.194;4.098;2023-04-15T11:28:27;18.50;99.90
14529;DHT22;7351;51.194;4.098;2023-04-15T11:30:54;18.60;99.90
14529;DHT22;7351;51.194;4.098;2023-04-15T11:33:22;18.50;99.90
14529;DHT22;7351;51.194;4.098;2023-04-15T11:35:52;18.60;99.90
14529;DHT22;7351;51.194;4.098;2023-04-15T11:38:19;18.60;99.90
14529;DHT22;7351;51.194;4.098;2023-04-15T11:40:47;18.60;99.90
14529;DHT22;7351;51.194;4.098;2023-04-15T11:43:15;18.70;99.90
14529;DHT22;7351;51.194;4.098;2023-04-15T11:45:51;18.70;99.90
14529;DHT22;7351;51.194;4.098;2023-04-15T11:48:20;18.70;99.90
14529;DHT22;7351;51.194;4.098;2023-04-15T11:50:54;18.80;99.90
14529;DHT22;7351;51.194;4.098;2023-04-15T11:53:21;18.80;99.90
14529;DHT22;7351;51.194;4.098;2023-04-15T11:55:49;18.80;99.90
14529;DHT22;7351;51.194;4.098;2023-04-15T11:58:18;18.80;99.90
14529;DHT22;7351;51.194;4.098;2023-04-15T12:00:47;18.80;99.90
14529;DHT22;7351;51.194;4.098;2023-04-15T12:03:18;18.90;99.90
14529;DHT22;7351;51.194;4.098;2023-04-15T12:06:05;18.90;99.90
14529;DHT22;7351;51.194;4.098;2023-04-15T12:08:54;19.00;99.90
14529;DHT22;7351;51.194;4.098;2023-04-15T12:11:28;19.00;99.90
14529;DHT22;7351;51.194;4.098;2023-04-15T12:13:57;19.10;99.90
14529;DHT22;7351;51.194;4.098;2023-04-15T12:16:26;19.10;99.90
14529;DHT22;7351;51.194;4.098;2023-04-15T12:18:55;19.10;99.90
14529;DHT22;7351;51.194;4.098;2023-04-15T12:21:24;19.10;99.90
14529;DHT22;7351;51.194;4.098;2023-04-15T12:23:52;19.10;99.90
14529;DHT22;7351;51.194;4.098;2023-04-15T12:26:25;19.10;99.90
14529;DHT22;7351;51.194;4.098;2023-04-15T12:28:55;19.10;99.90
14529;DHT22;7351;51.194;4.098;2023-04-15T12:31:22;19.10;99.90
14529;DHT22;7351;51.194;4.098;2023-04-15T12:33:49;19.10;99.90
14529;DHT22;7351;51.194;4.098;2023-04-15T12:36:16;19.10;99.90
14529;DHT22;7351;51.194;4.098;2023-04-15T12:38:44;19.20;99.90
14529;DHT22;7351;51.194;4.098;2023-04-15T12:41:11;19.20;99.90
14529;DHT22;7351;51.194;4.098;2023-04-15T12:43:38;19.30;99.90
14529;DHT22;7351;51.194;4.098;2023-04-15T12:46:06;19.30;99.90
14529;DHT22;7351;51.194;4.098;2023-04-15T12:48:34;19.30;99.90
14529;DHT22;7351;51.194;4.098;2023-04-15T12:51:01;19.40;99.90
14529;DHT22;7351;51.194;4.098;2023-04-15T12:53:28;19.40;99.90
14529;DHT22;7351;51.194;4.098;2023-04-15T12:55:57;19.40;99.90
14529;DHT22;7351;51.194;4.098;2023-04-15T12:58:24;19.50;99.90
14529;DHT22;7351;51.194;4.098;2023-04-15T13:00:50;19.50;99.90
14529;DHT22;7351;51.194;4.098;2023-04-15T13:03:17;19.60;99.90
14529;DHT22;7351;51.194;4.098;2023-04-15T13:05:45;19.60;99.90
14529;DHT22;7351;51.194;4.098;2023-04-15T13:08:11;19.50;99.90
14529;DHT22;7351;51.194;4.098;2023-04-15T13:10:38;19.50;99.90
14529;DHT22;7351;51.194;4.098;2023-04-15T13:13:08;19.50;99.90
14529;DHT22;7351;51.194;4.098;2023-04-15T13:15:35;19.50;99.90
14529;DHT22;7351;51.194;4.098;2023-04-15T13:18:03;19.50;99.90
14529;DHT22;7351;51.194;4.098;2023-04-15T13:20:30;19.50;98.50
14529;DHT22;7351;51.194;4.098;2023-04-15T13:22:57;19.50;97.20
14529;DHT22;7351;51.194;4.098;2023-04-15T13:25:24;19.50;96.80
14529;DHT22;7351;51.194;4.098;2023-04-15T13:27:51;19.50;96.30
14529;DHT22;7351;51.194;4.098;2023-04-15T13:30:19;19.50;96.30
14529;DHT22;7351;51.194;4.098;2023-04-15T13:32:46;19.60;95.90
14529;DHT22;7351;51.194;4.098;2023-04-15T13:35:13;19.60;95.60
14529;DHT22;7351;51.194;4.098;2023-04-15T13:37:41;19.60;95.70
14529;DHT22;7351;51.194;4.098;2023-04-15T13:40:08;19.70;95.80
14529;DHT22;7351;51.194;4.098;2023-04-15T13:42:36;19.70;96.60
14529;DHT22;7351;51.194;4.098;2023-04-15T13:45:03;19.70;97.20
14529;DHT22;7351;51.194;4.098;2023-04-15T13:47:32;19.70;98.10
14529;DHT22;7351;51.194;4.098;2023-04-15T13:50:01;19.70;98.70
14529;DHT22;7351;51.194;4.098;2023-04-15T13:52:28;19.80;99.20
14529;DHT22;7351;51.194;4.098;2023-04-15T13:54:55;19.80;99.80
14529;DHT22;7351;51.194;4.098;2023-04-15T13:57:22;19.80;99.90
14529;DHT22;7351;51.194;4.098;2023-04-15T13:59:49;19.90;99.90
14529;DHT22;7351;51.194;4.098;2023-04-15T14:02:16;19.90;99.90
14529;DHT22;7351;51.194;4.098;2023-04-15T14:04:44;19.90;99.90
14529;DHT22;7351;51.194;4.098;2023-04-15T14:07:11;19.90;99.90
14529;DHT22;7351;51.194;4.098;2023-04-15T14:09:38;19.90;99.90
14529;DHT22;7351;51.194;4.098;2023-04-15T14:12:05;20.00;99.90
14529;DHT22;7351;51.194;4.098;2023-04-15T14:14:32;20.00;99.90
14529;DHT22;7351;51.194;4.098;2023-04-15T14:16:59;20.00;99.90
14529;DHT22;7351;51.194;4.098;2023-04-15T14:19:26;20.00;99.90
14529;DHT22;7351;51.194;4.098;2023-04-15T14:21:54;20.00;99.90
14529;DHT22;7351;51.194;4.098;2023-04-15T14:24:21;20.00;99.90
14529;DHT22;7351;51.194;4.098;2023-04-15T14:26:48;20.00;99.90
14529;DHT22;7351;51.194;4.098;2023-04-15T14:29:15;20.00;99.90
14529;DHT22;7351;51.194;4.098;2023-04-15T14:31:42;20.10;99.90
14529;DHT22;7351;51.194;4.098;2023-04-15T14:34:09;20.10;99.90
14529;DHT22;7351;51.194;4.098;2023-04-15T14:36:36;20.10;99.90
14529;DHT22;7351;51.194;4.098;2023-04-15T14:39:05;20.10;99.90
14529;DHT22;7351;51.194;4.098;2023-04-15T14:41:31;20.10;99.90
14529;DHT22;7351;51.194;4.098;2023-04-15T14:43:58;20.10;99.90
14529;DHT22;7351;51.194;4.098;2023-04-15T14:46:26;20.10;99.90
14529;DHT22;7351;51.194;4.098;2023-04-15T14:48:53;20.10;99.90
14529;DHT22;7351;51.194;4.098;2023-04-15T14:51:20;20.10;99.90
14529;DHT22;7351;51.194;4.098;2023-04-15T14:53:47;20.10;99.90
14529;DHT22;7351;51.194;4.098;2023-04-15T14:56:16;20.10;99.90
14529;DHT22;7351;51.194;4.098;2023-04-15T14:58:44;20.10;99.90
14529;DHT22;7351;51.194;4.098;2023-04-15T15:01:11;20.10;99.90
14529;DHT22;7351;51.194;4.098;2023-04-15T15:03:38;20.10;99.90
14529;DHT22;7351;51.194;4.098;2023-04-15T15:06:05;20.10;99.90
14529;DHT22;7351;51.194;4.098;2023-04-15T15:08:32;20.10;99.90
14529;DHT22;7351;51.194;4.098;2023-04-15T15:10:59;20.10;99.90
14529;DHT22;7351;51.194;4.098;2023-04-15T15:13:27;20.10;99.90
14529;DHT22;7351;51.194;4.098;2023-04-15T15:15:54;20.10;99.90
14529;DHT22;7351;51.194;4.098;2023-04-15T15:18:21;20.20;99.90
14529;DHT22;7351;51.194;4.098;2023-04-15T15:20:50;20.20;99.90
14529;DHT22;7351;51.194;4.098;2023-04-15T15:23:17;20.20;99.90
14529;DHT22;7351;51.194;4.098;2023-04-15T15:25:45;20.30;99.90
14529;DHT22;7351;51.194;4.098;2023-04-15T15:28:12;20.30;99.90
14529;DHT22;7351;51.194;4.098;2023-04-15T15:30:40;20.30;99.90
14529;DHT22;7351;51.194;4.098;2023-04-15T15:33:07;20.30;99.90
14529;DHT22;7351;51.194;4.098;2023-04-15T15:35:34;20.40;99.90
14529;DHT22;7351;51.194;4.098;2023-04-15T15:38:04;20.40;99.90
14529;DHT22;7351;51.194;4.098;2023-04-15T15:40:31;20.40;99.90
14529;DHT22;7351;51.194;4.098;2023-04-15T15:42:58;20.50;99.90
14529;DHT22;7351;51.194;4.098;2023-04-15T15:45:26;20.40;99.90
14529;DHT22;7351;51.194;4.098;2023-04-15T15:47:55;20.50;99.90
14529;DHT22;7351;51.194;4.098;2023-04-15T15:50:23;20.50;99.90